Time;durP1;ratioP1;P1;durP2;ratioP2;P2;SDS_P1;SDS_P2;PMS_P1;PMS_P2;Temp;Humidity;BMP_temperature;BMP_pressure;BME280_temperature;BME280_humidity;BME280_pressure;Samples;Min_cycle;Max_cycle;Signal;HPM_P1;HPM_P2
2023/11/15 00:02:25;;;;;;;8.27;2.55;;;;;;;;;;5036013;28;20044;-66
2023/11/15 00:04:51;;;;;;;17.98;6.85;;;;;;;;;;5038969;28;20120;-66
2023/11/15 00:07:17;;;;;;;11.95;4.95;;;;;;;;;;5018938;28;20481;-67
2023/11/15 00:09:43;;;;;;;6.68;3.30;;;;;;;;;;5037903;28;20514;-67
2023/11/15 00:12:10;;;;;;;5.93;2.72;;;;;;;;;;5035685;28;20223;-66
2023/11/15 00:14:54;;;;;;;14.90;4.05;;;;;;;;;;5034691;28;20033;-66
2023/11/15 00:17:20;;;;;;;8.82;2.97;;;;;;;;;;5035146;28;20180;-66
2023/11/15 00:19:47;;;;;;;7.85;3.00;;;;;;;;;;5021419;28;20037;-69
2023/11/15 00:22:16;;;;;;;7.43;2.60;;;;;;;;;;5018047;28;20119;-67
2023/11/15 00:24:43;;;;;;;5.60;3.00;;;;;;;;;;5034594;28;20239;-66
2023/11/15 00:27:11;;;;;;;10.10;2.90;;;;;;;;;;5036217;28;20047;-66
2023/11/15 00:29:37;;;;;;;7.65;2.75;;;;;;;;;;5040694;28;20044;-67
2023/11/15 00:32:04;;;;;;;6.55;2.65;;;;;;;;;;5037007;28;20107;-68
2023/11/15 00:34:30;;;;;;;8.88;3.30;;;;;;;;;;5037968;28;20036;-66
2023/11/15 00:36:56;;;;;;;6.93;3.17;;;;;;;;;;5029593;28;21935;-66
2023/11/15 00:39:22;;;;;;;20.00;4.32;;;;;;;;;;5039633;28;20079;-66
2023/11/15 00:41:49;;;;;;;8.55;4.72;;;;;;;;;;5037009;28;20431;-66
2023/11/15 00:44:18;;;;;;;14.85;4.03;;;;;;;;;;5021028;28;20029;-66
2023/11/15 00:46:44;;;;;;;9.73;4.78;;;;;;;;;;5032703;28;20570;-66
2023/11/15 00:49:11;;;;;;;17.20;3.30;;;;;;;;;;5036099;28;20478;-66
2023/11/15 00:51:38;;;;;;;8.73;2.97;;;;;;;;;;5044844;28;20033;-68
2023/11/15 00:54:06;;;;;;;9.10;3.38;;;;;;;;;;5024013;28;20475;-67
2023/11/15 00:56:32;;;;;;;14.07;5.03;;;;;;;;;;5037015;28;20422;-66
2023/11/15 00:58:59;;;;;;;14.70;4.35;;;;;;;;;;5041998;28;20397;-67
2023/11/15 01:01:25;;;;;;;10.90;3.22;;;;;;;;;;5035540;28;20434;-65
2023/11/15 01:03:58;;;;;;;12.95;3.35;;;;;;;;;;5036848;28;20080;-66
2023/11/15 01:06:27;;;;;;;9.95;4.03;;;;;;;;;;5037805;28;20024;-71
2023/11/15 01:08:57;;;;;;;18.58;4.22;;;;;;;;;;5037996;28;20108;-66
2023/11/15 01:11:26;;;;;;;13.20;3.15;;;;;;;;;;5038499;28;20024;-67
2023/11/15 01:13:53;;;;;;;14.10;4.10;;;;;;;;;;5034050;28;20032;-66
2023/11/15 01:16:23;;;;;;;6.57;3.40;;;;;;;;;;5037520;28;20029;-66
2023/11/15 01:18:55;;;;;;;11.70;4.22;;;;;;;;;;5036522;28;20025;-67
2023/11/15 01:21:21;;;;;;;9.75;4.25;;;;;;;;;;5037953;28;20047;-68
2023/11/15 01:23:47;;;;;;;11.57;3.65;;;;;;;;;;5032336;28;20037;-65
2023/11/15 01:26:14;;;;;;;15.73;4.05;;;;;;;;;;5037556;28;20105;-67
2023/11/15 01:28:40;;;;;;;6.65;3.15;;;;;;;;;;5036127;28;20064;-67
2023/11/15 01:31:07;;;;;;;16.42;3.13;;;;;;;;;;5021319;28;20047;-66
2023/11/15 01:33:33;;;;;;;12.75;3.30;;;;;;;;;;5035616;28;20268;-65
2023/11/15 01:35:59;;;;;;;12.35;4.07;;;;;;;;;;5018943;28;20044;-70
2023/11/15 01:38:25;;;;;;;14.65;3.92;;;;;;;;;;5015544;28;20029;-67
2023/11/15 01:40:51;;;;;;;16.02;4.18;;;;;;;;;;5038833;28;20497;-69
2023/11/15 01:43:17;;;;;;;16.23;3.95;;;;;;;;;;5038185;28;20107;-67
2023/11/15 01:45:46;;;;;;;7.28;2.67;;;;;;;;;;5015455;28;20067;-66
2023/11/15 01:48:14;;;;;;;17.55;3.92;;;;;;;;;;5031235;28;20987;-71
2023/11/15 01:50:40;;;;;;;10.23;2.63;;;;;;;;;;5038027;28;20385;-67
2023/11/15 01:53:07;;;;;;;7.78;2.55;;;;;;;;;;5033677;28;20052;-66
2023/11/15 01:55:33;;;;;;;5.85;3.03;;;;;;;;;;5039606;28;20032;-66
2023/11/15 01:57:59;;;;;;;11.48;3.90;;;;;;;;;;5037880;28;20059;-67
2023/11/15 02:00:26;;;;;;;10.23;2.83;;;;;;;;;;5040176;28;20075;-66
2023/11/15 02:02:52;;;;;;;14.43;3.50;;;;;;;;;;5045878;28;20040;-66
2023/11/15 02:05:18;;;;;;;9.07;3.33;;;;;;;;;;5036987;28;20026;-65
2023/11/15 02:07:45;;;;;;;8.55;2.75;;;;;;;;;;5039528;28;20528;-66
2023/11/15 02:10:15;;;;;;;8.18;3.00;;;;;;;;;;5036833;28;20389;-66
2023/11/15 02:12:41;;;;;;;9.38;2.72;;;;;;;;;;5041977;28;20250;-66
2023/11/15 02:15:07;;;;;;;8.35;3.28;;;;;;;;;;5040613;28;20422;-66
2023/11/15 02:17:33;;;;;;;10.60;3.35;;;;;;;;;;5019706;28;20032;-66
2023/11/15 02:20:00;;;;;;;16.42;2.85;;;;;;;;;;5040495;28;20043;-66
2023/11/15 02:22:27;;;;;;;10.95;3.13;;;;;;;;;;5037413;28;20167;-67
2023/11/15 02:24:53;;;;;;;7.40;2.83;;;;;;;;;;5037714;28;20090;-66
2023/11/15 02:27:20;;;;;;;8.15;2.80;;;;;;;;;;5041403;28;20036;-67
2023/11/15 02:29:46;;;;;;;6.57;3.38;;;;;;;;;;5040313;28;20059;-67
2023/11/15 02:32:13;;;;;;;8.38;2.53;;;;;;;;;;5035700;28;20029;-66
2023/11/15 02:34:39;;;;;;;11.35;3.90;;;;;;;;;;5036756;28;20114;-67
2023/11/15 02:37:06;;;;;;;10.27;2.72;;;;;;;;;;5041277;28;20120;-66
2023/11/15 02:39:33;;;;;;;7.80;2.45;;;;;;;;;;5036369;28;20446;-66
2023/11/15 02:41:59;;;;;;;5.97;2.40;;;;;;;;;;5038496;28;20036;-65
2023/11/15 02:44:25;;;;;;;7.13;2.45;;;;;;;;;;5022436;28;20125;-66
2023/11/15 02:46:51;;;;;;;7.00;3.20;;;;;;;;;;5035512;28;20022;-66
2023/11/15 02:49:17;;;;;;;6.60;2.03;;;;;;;;;;5038887;28;20069;-67
2023/11/15 02:51:46;;;;;;;5.50;2.28;;;;;;;;;;5041024;28;20471;-66
2023/11/15 02:54:14;;;;;;;6.43;2.53;;;;;;;;;;5025075;28;20029;-65
2023/11/15 02:56:40;;;;;;;12.48;2.92;;;;;;;;;;5014871;28;20112;-66
2023/11/15 02:59:06;;;;;;;12.68;2.50;;;;;;;;;;5028005;28;20536;-65
2023/11/15 03:01:34;;;;;;;7.32;2.53;;;;;;;;;;5041288;28;20017;-66
2023/11/15 03:04:00;;;;;;;6.88;2.75;;;;;;;;;;5014875;28;20045;-65
2023/11/15 03:06:26;;;;;;;6.68;2.40;;;;;;;;;;5018250;28;20029;-65
2023/11/15 03:08:52;;;;;;;8.70;3.17;;;;;;;;;;5009691;28;20026;-65
2023/11/15 03:11:18;;;;;;;10.23;2.42;;;;;;;;;;5015158;28;20584;-65
2023/11/15 03:13:44;;;;;;;11.35;2.88;;;;;;;;;;5017027;28;20013;-65
2023/11/15 03:16:11;;;;;;;6.70;2.33;;;;;;;;;;5021001;28;20026;-65
2023/11/15 03:18:38;;;;;;;15.30;2.95;;;;;;;;;;5017506;28;20057;-67
2023/11/15 03:21:04;;;;;;;6.18;2.60;;;;;;;;;;4997697;28;20026;-65
2023/11/15 03:23:30;;;;;;;4.97;2.40;;;;;;;;;;5019646;28;20036;-67
2023/11/15 03:25:56;;;;;;;6.18;2.38;;;;;;;;;;5016899;28;20482;-67
2023/11/15 03:28:23;;;;;;;4.95;2.90;;;;;;;;;;5016209;28;20436;-66
2023/11/15 03:30:49;;;;;;;8.50;2.28;;;;;;;;;;5019101;28;20038;-68
2023/11/15 03:33:15;;;;;;;7.82;3.03;;;;;;;;;;5020024;28;20072;-66
2023/11/15 03:35:41;;;;;;;7.03;2.65;;;;;;;;;;5019757;28;20030;-66
2023/11/15 03:38:07;;;;;;;5.68;2.25;;;;;;;;;;5016114;28;20508;-74
2023/11/15 03:40:34;;;;;;;7.30;2.30;;;;;;;;;;5018902;28;20033;-65
2023/11/15 03:43:00;;;;;;;7.95;2.42;;;;;;;;;;5022825;28;20041;-66
2023/11/15 03:45:26;;;;;;;4.15;2.28;;;;;;;;;;5019809;28;20116;-66
2023/11/15 03:47:52;;;;;;;7.20;2.08;;;;;;;;;;5013180;28;20041;-65
2023/11/15 03:50:18;;;;;;;7.68;2.15;;;;;;;;;;5016123;28;20029;-65
2023/11/15 03:52:44;;;;;;;5.30;2.60;;;;;;;;;;5019283;28;20061;-66
2023/11/15 03:55:10;;;;;;;6.13;1.88;;;;;;;;;;5009323;28;20921;-65
2023/11/15 03:57:36;;;;;;;5.47;2.25;;;;;;;;;;5019079;28;20029;-66
2023/11/15 04:00:05;;;;;;;5.88;1.98;;;;;;;;;;5021114;28;20049;-66
2023/11/15 04:02:32;;;;;;;5.57;2.00;;;;;;;;;;5016775;28;20506;-66
2023/11/15 04:04:58;;;;;;;3.78;2.40;;;;;;;;;;5034102;28;20032;-66
2023/11/15 04:07:26;;;;;;;4.65;2.20;;;;;;;;;;5032671;28;20033;-67
2023/11/15 04:09:52;;;;;;;6.57;2.50;;;;;;;;;;5039726;28;20075;-66
2023/11/15 04:12:18;;;;;;;5.68;2.22;;;;;;;;;;5034528;28;20085;-66
2023/11/15 04:14:44;;;;;;;5.07;2.20;;;;;;;;;;5040009;28;20025;-66
2023/11/15 04:17:10;;;;;;;11.10;2.90;;;;;;;;;;5039172;28;20471;-66
2023/11/15 04:19:36;;;;;;;11.00;3.38;;;;;;;;;;5038096;28;20063;-66
2023/11/15 04:22:03;;;;;;;9.73;2.40;;;;;;;;;;5042214;28;20109;-66
2023/11/15 04:24:29;;;;;;;5.13;2.40;;;;;;;;;;5035803;28;20474;-66
2023/11/15 04:26:55;;;;;;;8.95;2.35;;;;;;;;;;5040177;28;20036;-66
2023/11/15 04:29:21;;;;;;;7.03;2.30;;;;;;;;;;5021974;28;20032;-66
2023/11/15 04:31:51;;;;;;;6.57;2.47;;;;;;;;;;5042791;28;20025;-66
2023/11/15 04:34:17;;;;;;;9.07;2.97;;;;;;;;;;5039759;28;20029;-66
2023/11/15 04:36:46;;;;;;;8.85;2.60;;;;;;;;;;5040957;28;20032;-66
2023/11/15 04:39:13;;;;;;;3.28;2.60;;;;;;;;;;5037090;28;20463;-66
2023/11/15 04:41:39;;;;;;;9.23;2.05;;;;;;;;;;5038922;28;20028;-66
2023/11/15 04:44:05;;;;;;;7.53;2.10;;;;;;;;;;5037567;28;20029;-65
2023/11/15 04:46:35;;;;;;;8.55;2.30;;;;;;;;;;5032255;28;20024;-65
2023/11/15 04:49:02;;;;;;;3.83;1.65;;;;;;;;;;5039234;28;20112;-67
2023/11/15 04:51:28;;;;;;;6.47;2.72;;;;;;;;;;5016782;28;20786;-69
2023/11/15 04:53:54;;;;;;;5.40;2.47;;;;;;;;;;5036775;28;20245;-65
2023/11/15 04:56:22;;;;;;;3.78;2.40;;;;;;;;;;5036474;28;20020;-65
2023/11/15 04:58:49;;;;;;;7.43;2.10;;;;;;;;;;5037266;28;20320;-65
2023/11/15 05:01:15;;;;;;;10.32;3.25;;;;;;;;;;5032967;28;20021;-65
2023/11/15 05:03:41;;;;;;;6.82;2.22;;;;;;;;;;5037231;28;20069;-66
2023/11/15 05:06:08;;;;;;;3.38;1.75;;;;;;;;;;5029968;28;20043;-65
2023/11/15 05:08:34;;;;;;;6.43;1.85;;;;;;;;;;5032169;28;20032;-65
2023/11/15 05:11:01;;;;;;;8.52;1.98;;;;;;;;;;5033405;28;20085;-65
2023/11/15 05:13:29;;;;;;;7.18;2.00;;;;;;;;;;5036267;28;20103;-65
2023/11/15 05:15:55;;;;;;;5.10;2.40;;;;;;;;;;5038163;28;20094;-65
2023/11/15 05:18:21;;;;;;;5.53;2.13;;;;;;;;;;5035902;28;20032;-65
2023/11/15 05:20:47;;;;;;;7.25;2.05;;;;;;;;;;5020868;28;20037;-66
2023/11/15 05:23:13;;;;;;;3.97;2.15;;;;;;;;;;5038469;28;20044;-65
2023/11/15 05:25:40;;;;;;;3.45;2.00;;;;;;;;;;5035511;28;20386;-66
2023/11/15 05:28:06;;;;;;;3.25;1.98;;;;;;;;;;5035373;28;20026;-66
2023/11/15 05:30:32;;;;;;;4.32;1.67;;;;;;;;;;5031269;28;20063;-66
2023/11/15 05:32:58;;;;;;;3.72;2.00;;;;;;;;;;5036668;28;20025;-66
2023/11/15 05:35:24;;;;;;;5.53;1.70;;;;;;;;;;5037072;28;20056;-65
2023/11/15 05:37:51;;;;;;;4.22;2.08;;;;;;;;;;5038688;28;20029;-68
2023/11/15 05:40:18;;;;;;;6.47;3.50;;;;;;;;;;5020316;28;20757;-66
2023/11/15 05:42:44;;;;;;;4.35;2.05;;;;;;;;;;5041206;28;20087;-66
2023/11/15 05:45:11;;;;;;;3.72;1.70;;;;;;;;;;5024082;28;20040;-67
2023/11/15 05:47:40;;;;;;;3.03;2.35;;;;;;;;;;5034959;28;20033;-66
2023/11/15 05:50:10;;;;;;;4.22;1.90;;;;;;;;;;5036082;28;20057;-66
2023/11/15 05:52:39;;;;;;;8.57;2.25;;;;;;;;;;5042505;28;20024;-65
2023/11/15 05:55:06;;;;;;;4.93;2.00;;;;;;;;;;5043095;28;20096;-66
2023/11/15 05:57:33;;;;;;;5.65;1.90;;;;;;;;;;5016752;28;20025;-66
2023/11/15 05:59:59;;;;;;;3.65;2.13;;;;;;;;;;5042305;28;20055;-66
2023/11/15 06:02:25;;;;;;;4.28;2.00;;;;;;;;;;5040598;28;20047;-66
2023/11/15 06:04:55;;;;;;;3.03;1.90;;;;;;;;;;5034156;28;20071;-66
2023/11/15 06:07:21;;;;;;;4.72;2.00;;;;;;;;;;5034283;28;20033;-66
2023/11/15 06:09:47;;;;;;;4.72;2.72;;;;;;;;;;5033103;28;20040;-66
2023/11/15 06:12:13;;;;;;;4.35;1.98;;;;;;;;;;5032337;28;20025;-67
2023/11/15 06:14:40;;;;;;;3.85;2.13;;;;;;;;;;5024448;28;20554;-66
2023/11/15 06:17:07;;;;;;;2.85;1.80;;;;;;;;;;5038724;28;20469;-64
2023/11/15 06:19:33;;;;;;;4.45;2.40;;;;;;;;;;5038876;28;20463;-65
2023/11/15 06:22:00;;;;;;;6.75;1.90;;;;;;;;;;5020580;28;20024;-66
2023/11/15 06:24:26;;;;;;;7.03;2.20;;;;;;;;;;5041954;28;20029;-66
2023/11/15 06:26:52;;;;;;;3.17;1.58;;;;;;;;;;5038826;28;20053;-66
2023/11/15 06:29:20;;;;;;;9.10;2.58;;;;;;;;;;5040115;28;20085;-66
2023/11/15 06:31:48;;;;;;;5.50;2.75;;;;;;;;;;5043168;28;20029;-65
2023/11/15 06:34:14;;;;;;;8.30;1.98;;;;;;;;;;5026397;28;20029;-67
2023/11/15 06:36:44;;;;;;;4.97;1.90;;;;;;;;;;5044755;28;20024;-67
2023/11/15 06:39:12;;;;;;;4.18;2.22;;;;;;;;;;5023293;28;20036;-67
2023/11/15 06:41:38;;;;;;;2.35;1.80;;;;;;;;;;5039396;28;20056;-67
2023/11/15 06:44:08;;;;;;;3.05;1.85;;;;;;;;;;5040049;28;20352;-66
2023/11/15 06:46:38;;;;;;;5.63;2.08;;;;;;;;;;5042162;28;20060;-67
2023/11/15 06:49:10;;;;;;;4.10;1.65;;;;;;;;;;5044627;28;20037;-67
2023/11/15 06:51:37;;;;;;;8.70;2.20;;;;;;;;;;5039043;28;20107;-66
2023/11/15 06:54:03;;;;;;;8.80;2.50;;;;;;;;;;5042824;28;20029;-67
2023/11/15 06:56:29;;;;;;;3.15;2.03;;;;;;;;;;5041135;28;20029;-66
2023/11/15 06:58:55;;;;;;;7.05;2.28;;;;;;;;;;5042104;28;20021;-68
2023/11/15 07:01:22;;;;;;;5.75;2.42;;;;;;;;;;5033120;28;20041;-67
2023/11/15 07:03:49;;;;;;;9.48;2.17;;;;;;;;;;5036900;28;20106;-68
2023/11/15 07:06:15;;;;;;;3.05;1.77;;;;;;;;;;5041999;28;20033;-68
2023/11/15 07:08:41;;;;;;;7.32;2.22;;;;;;;;;;5037974;28;20071;-71
2023/11/15 07:11:08;;;;;;;3.28;1.70;;;;;;;;;;5034944;28;20088;-67
2023/11/15 07:13:34;;;;;;;4.93;2.05;;;;;;;;;;5040731;28;20175;-65
2023/11/15 07:16:02;;;;;;;4.47;2.40;;;;;;;;;;5043987;28;20056;-67
2023/11/15 07:18:34;;;;;;;4.43;1.90;;;;;;;;;;5032466;28;20044;-70
2023/11/15 07:21:00;;;;;;;3.70;1.70;;;;;;;;;;5043011;28;20033;-65
2023/11/15 07:23:27;;;;;;;2.90;1.83;;;;;;;;;;5037901;28;20032;-66
2023/11/15 07:25:56;;;;;;;6.25;2.42;;;;;;;;;;5036242;28;20083;-67
2023/11/15 07:28:23;;;;;;;6.78;2.20;;;;;;;;;;5032174;28;20468;-66
2023/11/15 07:30:55;;;;;;;2.60;1.65;;;;;;;;;;5047282;28;20064;-68
2023/11/15 07:33:21;;;;;;;6.10;2.33;;;;;;;;;;5030452;28;20025;-67
2023/11/15 07:35:50;;;;;;;4.97;1.83;;;;;;;;;;5031866;28;20021;-66
2023/11/15 07:38:17;;;;;;;4.65;1.80;;;;;;;;;;5048277;28;20070;-66
2023/11/15 07:40:43;;;;;;;9.77;2.70;;;;;;;;;;5048670;28;20039;-67
2023/11/15 07:43:10;;;;;;;4.72;2.20;;;;;;;;;;5047979;28;20033;-67
2023/11/15 07:45:38;;;;;;;5.15;2.30;;;;;;;;;;5046140;28;20612;-67
2023/11/15 07:48:05;;;;;;;11.18;2.75;;;;;;;;;;5045769;28;20119;-67
2023/11/15 07:50:35;;;;;;;3.70;2.20;;;;;;;;;;5043492;28;20028;-67
2023/11/15 07:53:01;;;;;;;5.28;1.75;;;;;;;;;;5020477;28;20507;-67
2023/11/15 07:55:28;;;;;;;2.35;2.13;;;;;;;;;;5030525;28;20025;-67
2023/11/15 07:57:54;;;;;;;6.00;2.17;;;;;;;;;;5031435;28;20029;-67
2023/11/15 08:00:24;;;;;;;6.60;2.45;;;;;;;;;;5045313;28;20029;-67
2023/11/15 08:02:54;;;;;;;4.53;2.10;;;;;;;;;;5047796;28;20048;-66
2023/11/15 08:05:21;;;;;;;4.47;2.00;;;;;;;;;;5050312;28;20399;-67
2023/11/15 08:07:48;;;;;;;2.95;1.92;;;;;;;;;;5052223;28;20025;-67
2023/11/15 08:10:14;;;;;;;2.95;1.77;;;;;;;;;;5032190;28;20049;-67
2023/11/15 08:12:41;;;;;;;2.55;1.92;;;;;;;;;;5034113;28;20036;-67
2023/11/15 08:15:09;;;;;;;7.65;3.15;;;;;;;;;;5052813;28;20037;-68
2023/11/15 08:17:36;;;;;;;5.40;2.00;;;;;;;;;;5048211;28;20025;-66
2023/11/15 08:20:04;;;;;;;5.30;1.90;;;;;;;;;;5048376;28;20565;-66
2023/11/15 08:22:31;;;;;;;6.70;2.00;;;;;;;;;;5047098;28;20042;-67
2023/11/15 08:24:58;;;;;;;12.52;2.05;;;;;;;;;;5052049;28;20071;-67
2023/11/15 08:27:24;;;;;;;7.65;2.13;;;;;;;;;;5047054;28;20029;-69
2023/11/15 08:29:52;;;;;;;5.45;2.38;;;;;;;;;;5018740;28;20478;-66
2023/11/15 08:32:19;;;;;;;5.45;2.42;;;;;;;;;;5041539;28;20556;-65
2023/11/15 08:34:46;;;;;;;6.30;2.25;;;;;;;;;;5028371;28;20028;-67
2023/11/15 08:37:13;;;;;;;8.35;3.03;;;;;;;;;;5022908;28;20509;-65
2023/11/15 08:39:40;;;;;;;4.72;2.08;;;;;;;;;;5034695;28;20032;-67
2023/11/15 08:42:06;;;;;;;4.93;2.00;;;;;;;;;;5021071;28;20043;-68
2023/11/15 08:44:32;;;;;;;7.78;2.70;;;;;;;;;;5039810;28;20029;-68
2023/11/15 08:46:59;;;;;;;3.38;1.75;;;;;;;;;;5044722;28;20029;-69
2023/11/15 08:49:26;;;;;;;2.85;2.40;;;;;;;;;;5025054;28;20037;-71
2023/11/15 08:51:52;;;;;;;8.55;2.40;;;;;;;;;;5038012;28;20025;-71
2023/11/15 08:54:19;;;;;;;5.28;2.55;;;;;;;;;;5043454;28;20756;-68
2023/11/15 08:56:45;;;;;;;5.07;3.35;;;;;;;;;;5027229;28;20024;-69
2023/11/15 08:59:13;;;;;;;3.95;2.83;;;;;;;;;;5019689;28;20406;-71
2023/11/15 09:01:41;;;;;;;9.80;2.33;;;;;;;;;;5023427;28;20470;-69
2023/11/15 09:04:07;;;;;;;2.80;1.77;;;;;;;;;;5040818;28;20582;-69
2023/11/15 09:06:34;;;;;;;7.25;2.35;;;;;;;;;;5018075;28;20179;-68
2023/11/15 09:09:01;;;;;;;5.28;2.30;;;;;;;;;;5038765;28;20036;-69
2023/11/15 09:11:30;;;;;;;7.80;2.55;;;;;;;;;;5038404;28;20029;-69
2023/11/15 09:13:56;;;;;;;3.75;1.95;;;;;;;;;;5041261;28;20050;-70
2023/11/15 09:16:22;;;;;;;3.58;2.22;;;;;;;;;;5043033;28;20043;-70
2023/11/15 09:18:50;;;;;;;3.63;2.22;;;;;;;;;;5045016;28;20150;-65
2023/11/15 09:21:18;;;;;;;4.88;2.58;;;;;;;;;;5051788;28;20485;-66
2023/11/15 09:23:45;;;;;;;8.52;3.25;;;;;;;;;;5052467;28;20048;-66
2023/11/15 09:26:18;;;;;;;6.75;3.03;;;;;;;;;;5050340;28;20021;-68
2023/11/15 09:28:44;;;;;;;3.08;2.47;;;;;;;;;;5046938;28;20494;-65
2023/11/15 09:31:14;;;;;;;8.13;2.97;;;;;;;;;;5055263;28;20033;-65
2023/11/15 09:33:40;;;;;;;7.97;2.42;;;;;;;;;;5050830;28;20302;-66
2023/11/15 09:36:10;;;;;;;4.78;2.10;;;;;;;;;;5052470;28;21279;-66
2023/11/15 09:38:37;;;;;;;7.07;2.10;;;;;;;;;;5049591;28;20031;-67
2023/11/15 09:41:05;;;;;;;4.75;2.10;;;;;;;;;;5045786;28;20025;-67
2023/11/15 09:43:31;;;;;;;6.63;1.98;;;;;;;;;;5045473;28;20429;-64
2023/11/15 09:45:58;;;;;;;3.92;2.33;;;;;;;;;;5022383;28;20029;-64
2023/11/15 09:48:27;;;;;;;3.58;2.50;;;;;;;;;;5043137;28;20120;-67
2023/11/15 09:50:54;;;;;;;6.97;2.45;;;;;;;;;;5022672;28;20025;-69
2023/11/15 09:53:24;;;;;;;3.88;1.90;;;;;;;;;;5027573;28;20036;-65
2023/11/15 09:55:51;;;;;;;6.55;2.53;;;;;;;;;;5043849;28;20032;-67
2023/11/15 09:58:18;;;;;;;6.47;2.80;;;;;;;;;;5033628;28;20060;-67
2023/11/15 10:00:46;;;;;;;7.70;2.60;;;;;;;;;;5041860;28;20471;-67
2023/11/15 10:03:12;;;;;;;3.60;1.95;;;;;;;;;;5046655;28;20111;-65
2023/11/15 10:05:42;;;;;;;9.30;2.20;;;;;;;;;;5045056;28;20029;-66
2023/11/15 10:08:13;;;;;;;10.23;2.60;;;;;;;;;;5040442;28;20435;-66
2023/11/15 10:10:40;;;;;;;3.10;2.75;;;;;;;;;;5044027;28;20033;-68
2023/11/15 10:13:26;;;;;;;5.43;2.20;;;;;;;;;;5038880;28;20419;-69
2023/11/15 10:15:54;;;;;;;9.02;2.25;;;;;;;;;;5042631;28;20048;-70
2023/11/15 10:18:38;;;;;;;7.82;2.50;;;;;;;;;;5039408;28;20044;-69
2023/11/15 10:21:07;;;;;;;5.28;2.15;;;;;;;;;;5042377;28;20725;-68
2023/11/15 10:23:34;;;;;;;8.25;2.70;;;;;;;;;;5035427;28;20462;-68
2023/11/15 10:26:01;;;;;;;6.05;2.47;;;;;;;;;;5021349;28;20029;-70
2023/11/15 10:28:39;;;;;;;10.95;2.72;;;;;;;;;;5038608;28;20589;-69
2023/11/15 10:31:07;;;;;;;9.23;2.33;;;;;;;;;;5042248;28;20029;-68
2023/11/15 10:33:37;;;;;;;15.23;2.70;;;;;;;;;;5042853;28;20381;-67
2023/11/15 10:36:16;;;;;;;15.35;2.92;;;;;;;;;;5040168;28;20021;-67
2023/11/15 10:38:46;;;;;;;10.73;2.47;;;;;;;;;;5045286;28;20422;-65
2023/11/15 10:41:17;;;;;;;5.53;2.42;;;;;;;;;;5047046;28;20587;-67
2023/11/15 10:43:48;;;;;;;6.68;2.53;;;;;;;;;;5047006;28;20067;-67
2023/11/15 10:46:16;;;;;;;3.95;2.55;;;;;;;;;;5049862;28;20055;-64
2023/11/15 10:48:44;;;;;;;11.75;2.50;;;;;;;;;;5046985;28;21085;-70
2023/11/15 10:51:16;;;;;;;5.35;2.33;;;;;;;;;;5039754;28;20496;-67
2023/11/15 10:53:43;;;;;;;9.88;3.25;;;;;;;;;;5040193;28;20552;-67
2023/11/15 10:56:13;;;;;;;5.30;2.22;;;;;;;;;;5022065;28;20025;-71
2023/11/15 10:58:39;;;;;;;11.43;3.13;;;;;;;;;;5033125;28;20029;-70
2023/11/15 11:01:09;;;;;;;5.75;2.40;;;;;;;;;;5039515;28;20064;-72
2023/11/15 11:03:39;;;;;;;8.32;3.35;;;;;;;;;;5017376;28;20589;-71
2023/11/15 11:06:08;;;;;;;10.25;2.42;;;;;;;;;;5019967;28;20513;-70
2023/11/15 11:09:03;;;;;;;7.65;2.28;;;;;;;;;;5025912;28;20118;-69
2023/11/15 11:11:41;;;;;;;5.10;1.95;;;;;;;;;;5001345;28;20048;-69
2023/11/15 11:14:20;;;;;;;10.02;2.88;;;;;;;;;;5015150;28;20399;-71
2023/11/15 11:16:47;;;;;;;8.32;2.88;;;;;;;;;;5021603;28;20029;-71
2023/11/15 11:19:21;;;;;;;8.82;2.63;;;;;;;;;;5016718;28;20037;-69
2023/11/15 11:24:32;;;;;;;11.18;2.72;;;;;;;;;;5020123;28;20072;-67
2023/11/15 11:27:14;;;;;;;11.18;2.58;;;;;;;;;;5018659;28;20495;-69
2023/11/15 11:29:49;;;;;;;5.13;2.45;;;;;;;;;;5018357;28;20029;-67
2023/11/15 11:32:20;;;;;;;7.00;3.42;;;;;;;;;;5027379;28;20708;-69
2023/11/15 11:35:20;;;;;;;4.65;2.35;;;;;;;;;;5015260;28;20039;-66
2023/11/15 11:37:50;;;;;;;11.73;4.28;;;;;;;;;;5000357;28;20417;-71
2023/11/15 11:40:17;;;;;;;8.50;2.75;;;;;;;;;;5018253;28;20491;-69
2023/11/15 11:42:47;;;;;;;7.65;2.30;;;;;;;;;;5017602;28;20135;-68
2023/11/15 11:45:14;;;;;;;17.60;3.88;;;;;;;;;;5017268;28;20044;-69
2023/11/15 11:47:40;;;;;;;12.30;2.35;;;;;;;;;;5009797;28;20030;-71
2023/11/15 11:50:07;;;;;;;5.53;2.70;;;;;;;;;;5013107;28;20472;-70
2023/11/15 11:52:39;;;;;;;6.22;2.75;;;;;;;;;;5017375;28;20033;-70
2023/11/15 11:55:06;;;;;;;9.23;2.65;;;;;;;;;;5016459;28;20025;-62
2023/11/15 11:57:35;;;;;;;5.90;2.40;;;;;;;;;;5013592;28;20025;-62
2023/11/15 12:00:18;;;;;;;7.47;2.40;;;;;;;;;;5014984;28;20430;-62
2023/11/15 12:02:46;;;;;;;9.40;2.35;;;;;;;;;;5032662;28;20068;-63
2023/11/15 12:05:13;;;;;;;5.60;2.30;;;;;;;;;;5018127;28;20033;-61
2023/11/15 12:08:00;;;;;;;5.28;2.58;;;;;;;;;;5036273;28;20047;-62
2023/11/15 12:10:26;;;;;;;7.85;2.47;;;;;;;;;;5034996;28;20107;-62
2023/11/15 12:12:56;;;;;;;10.85;3.15;;;;;;;;;;5029308;28;20025;-63
2023/11/15 12:15:27;;;;;;;3.00;2.13;;;;;;;;;;5029676;28;20578;-62
2023/11/15 12:17:56;;;;;;;8.50;3.00;;;;;;;;;;5031447;28;20024;-65
2023/11/15 12:20:28;;;;;;;5.10;2.95;;;;;;;;;;5029732;28;20676;-60
2023/11/15 12:23:08;;;;;;;4.45;2.30;;;;;;;;;;5014553;28;20049;-61
2023/11/15 12:25:48;;;;;;;9.00;2.58;;;;;;;;;;5032712;28;20108;-61
2023/11/15 12:28:15;;;;;;;5.68;2.03;;;;;;;;;;5032785;28;20037;-60
2023/11/15 12:30:42;;;;;;;7.28;2.47;;;;;;;;;;5034402;28;20571;-61
2023/11/15 12:33:09;;;;;;;8.00;2.25;;;;;;;;;;5034297;28;20071;-61
2023/11/15 12:35:36;;;;;;;12.23;2.85;;;;;;;;;;5019742;28;20024;-60
2023/11/15 12:38:11;;;;;;;7.82;2.67;;;;;;;;;;5022110;28;20056;-60
2023/11/15 12:40:37;;;;;;;3.65;2.28;;;;;;;;;;5039782;28;20029;-60
2023/11/15 12:43:33;;;;;;;9.02;2.25;;;;;;;;;;5015189;28;20040;-61
2023/11/15 12:46:00;;;;;;;6.32;2.75;;;;;;;;;;5022306;28;20042;-61
2023/11/15 12:48:27;;;;;;;4.97;2.33;;;;;;;;;;5017298;28;20033;-60
2023/11/15 12:51:00;;;;;;;5.13;2.17;;;;;;;;;;5036646;28;20035;-62
2023/11/15 12:53:31;;;;;;;4.93;2.20;;;;;;;;;;5025086;28;20017;-61
2023/11/15 12:55:57;;;;;;;8.10;2.40;;;;;;;;;;5035384;28;20055;-61
2023/11/15 12:58:29;;;;;;;6.57;2.42;;;;;;;;;;5032282;28;20024;-61
2023/11/15 13:01:01;;;;;;;7.32;3.20;;;;;;;;;;5034818;28;20049;-60
2023/11/15 13:03:32;;;;;;;7.53;2.90;;;;;;;;;;5032935;28;20049;-60
2023/11/15 13:06:14;;;;;;;8.18;2.55;;;;;;;;;;5035543;28;20116;-60
2023/11/15 13:08:44;;;;;;;6.80;2.95;;;;;;;;;;5034073;28;20036;-61
2023/11/15 13:11:14;;;;;;;9.38;2.40;;;;;;;;;;5035434;28;20112;-60
2023/11/15 13:13:41;;;;;;;5.35;3.15;;;;;;;;;;5035525;28;20044;-60
2023/11/15 13:16:12;;;;;;;5.30;2.70;;;;;;;;;;5028106;28;20401;-61
2023/11/15 13:18:39;;;;;;;12.75;4.38;;;;;;;;;;5034393;28;20043;-60
2023/11/15 13:21:15;;;;;;;7.85;3.83;;;;;;;;;;5015152;28;20417;-60
2023/11/15 13:23:45;;;;;;;8.20;2.95;;;;;;;;;;5033986;28;20502;-60
2023/11/15 13:26:14;;;;;;;5.13;2.70;;;;;;;;;;5034752;28;20036;-60
2023/11/15 13:28:44;;;;;;;4.95;3.30;;;;;;;;;;5035043;28;20025;-60
2023/11/15 13:31:13;;;;;;;9.30;2.75;;;;;;;;;;5035869;28;20116;-63
2023/11/15 13:33:39;;;;;;;6.78;2.80;;;;;;;;;;5029229;28;20025;-60
2023/11/15 13:36:06;;;;;;;6.88;2.30;;;;;;;;;;5034699;28;20033;-60
2023/11/15 13:38:33;;;;;;;6.18;2.25;;;;;;;;;;5032223;28;20037;-61
2023/11/15 13:40:59;;;;;;;8.70;2.85;;;;;;;;;;5019520;28;20040;-62
2023/11/15 13:43:25;;;;;;;4.47;2.47;;;;;;;;;;5031076;28;20025;-61
2023/11/15 13:45:51;;;;;;;7.70;2.50;;;;;;;;;;5040472;28;20053;-61
2023/11/15 13:48:17;;;;;;;7.35;2.80;;;;;;;;;;5034562;28;20124;-61
2023/11/15 13:50:44;;;;;;;12.15;2.67;;;;;;;;;;5038889;28;20071;-61
2023/11/15 13:53:10;;;;;;;9.02;2.35;;;;;;;;;;5033658;28;20014;-60
2023/11/15 13:55:39;;;;;;;5.63;2.45;;;;;;;;;;5039993;28;20253;-60
2023/11/15 13:58:06;;;;;;;5.97;2.25;;;;;;;;;;5038668;28;20029;-60
2023/11/15 14:00:36;;;;;;;9.38;3.63;;;;;;;;;;5044322;28;20040;-60
2023/11/15 14:03:06;;;;;;;6.90;2.42;;;;;;;;;;5040797;28;20056;-60
2023/11/15 14:05:33;;;;;;;12.93;2.63;;;;;;;;;;5037022;28;20025;-60
2023/11/15 14:07:59;;;;;;;8.65;2.45;;;;;;;;;;5035804;28;20042;-60
2023/11/15 14:10:27;;;;;;;8.38;2.60;;;;;;;;;;5037447;28;20557;-60
2023/11/15 14:12:53;;;;;;;7.43;2.88;;;;;;;;;;5040212;28;20111;-61
2023/11/15 14:15:21;;;;;;;5.97;2.70;;;;;;;;;;5041107;28;20074;-60
2023/11/15 14:17:48;;;;;;;8.10;3.15;;;;;;;;;;5041908;28;20162;-60
2023/11/15 14:20:18;;;;;;;5.28;3.03;;;;;;;;;;5034255;28;20071;-60
2023/11/15 14:22:44;;;;;;;4.25;2.30;;;;;;;;;;5030572;28;20071;-62
2023/11/15 14:25:20;;;;;;;4.47;2.47;;;;;;;;;;5018803;28;20033;-60
2023/11/15 14:27:50;;;;;;;5.20;2.97;;;;;;;;;;5035952;28;20063;-61
2023/11/15 14:30:17;;;;;;;7.80;3.33;;;;;;;;;;5039386;28;20139;-60
2023/11/15 14:32:43;;;;;;;8.93;3.55;;;;;;;;;;5037388;28;20081;-61
2023/11/15 14:35:09;;;;;;;7.10;2.85;;;;;;;;;;5039022;28;20287;-60
2023/11/15 14:37:36;;;;;;;5.55;2.47;;;;;;;;;;5037357;28;20028;-60
2023/11/15 14:40:06;;;;;;;5.13;2.78;;;;;;;;;;5040569;28;20035;-61
2023/11/15 14:42:33;;;;;;;10.00;5.63;;;;;;;;;;5037089;28;20036;-60
2023/11/15 14:44:59;;;;;;;4.68;2.55;;;;;;;;;;5040514;28;20033;-61
2023/11/15 14:47:28;;;;;;;7.15;3.35;;;;;;;;;;5036092;28;20036;-61
2023/11/15 14:49:56;;;;;;;4.88;3.60;;;;;;;;;;5023515;28;20287;-60